createdAt,value
2023-01-18T00:00:32.304Z,13.40
2023-01-18T00:03:00.218Z,13.15
2023-01-18T00:05:28.111Z,12.85
2023-01-18T00:07:57.168Z,13.55
2023-01-18T00:10:25.147Z,13.73
2023-01-18T00:12:52.723Z,14.02
2023-01-18T00:15:20.304Z,13.07
2023-01-18T00:17:52.483Z,13.70
2023-01-18T00:20:21.649Z,12.68
2023-01-18T00:22:49.610Z,13.82
2023-01-18T00:25:19.220Z,13.40
2023-01-18T00:27:48.198Z,13.52
2023-01-18T00:30:18.321Z,13.10
2023-01-18T00:32:46.068Z,12.70
2023-01-18T00:35:13.861Z,12.05
2023-01-18T00:37:41.585Z,13.33
2023-01-18T00:40:10.999Z,13.18
2023-01-18T00:42:58.132Z,13.98
2023-01-18T00:45:25.878Z,13.35
2023-01-18T00:47:53.413Z,14.40
2023-01-18T00:50:22.420Z,14.20
2023-01-18T00:52:50.704Z,13.68
2023-01-18T00:55:19.160Z,13.87
2023-01-18T00:57:48.801Z,14.02
2023-01-18T01:00:16.746Z,13.90
2023-01-18T01:02:44.521Z,13.63
2023-01-18T01:05:35.199Z,16.17
2023-01-18T01:08:03.087Z,16.08
2023-01-18T01:10:30.691Z,15.43
2023-01-18T01:13:17.569Z,15.60
2023-01-18T01:16:02.578Z,16.30
2023-01-18T01:18:47.782Z,15.57
2023-01-18T01:21:32.895Z,14.48
2023-01-18T01:24:18.201Z,16.17
2023-01-18T01:26:46.024Z,15.70
2023-01-18T01:29:15.887Z,17.35
2023-01-18T01:31:43.656Z,16.33
2023-01-18T01:34:11.390Z,17.50
2023-01-18T01:36:39.115Z,16.70
2023-01-18T01:39:07.082Z,15.57
2023-01-18T01:41:36.036Z,16.40
2023-01-18T01:44:06.608Z,16.02
2023-01-18T01:46:40.746Z,16.17
2023-01-18T01:49:10.469Z,14.65
2023-01-18T01:51:39.789Z,14.97
2023-01-18T01:54:10.026Z,15.55
2023-01-18T01:56:38.358Z,15.10
2023-01-18T01:59:06.193Z,14.85
2023-01-18T02:01:34.389Z,15.50
2023-01-18T02:04:04.006Z,14.80
2023-01-18T02:06:34.956Z,14.45
2023-01-18T02:09:04.966Z,14.70
2023-01-18T02:11:32.616Z,14.77
2023-01-18T02:14:02.224Z,15.27
2023-01-18T02:16:42.505Z,13.82
2023-01-18T02:19:22.332Z,14.80
2023-01-18T02:21:54.316Z,14.40
2023-01-18T02:24:45.872Z,14.70
2023-01-18T02:27:22.859Z,12.82
2023-01-18T02:29:59.924Z,12.85
2023-01-18T02:32:34.373Z,13.43
2023-01-18T02:35:09.104Z,13.30
2023-01-18T02:37:43.595Z,13.65
2023-01-18T02:40:17.309Z,13.20
2023-01-18T02:43:03.456Z,14.05
2023-01-18T02:45:52.562Z,14.05
2023-01-18T02:48:22.251Z,14.60
2023-01-18T02:50:50.104Z,14.98
2023-01-18T02:53:17.975Z,14.43
2023-01-18T02:55:49.227Z,15.70
2023-01-18T02:58:22.935Z,16.13
2023-01-18T03:00:57.112Z,16.02
2023-01-18T03:03:25.868Z,16.02
2023-01-18T03:05:55.614Z,14.77
2023-01-18T03:08:27.372Z,15.48
2023-01-18T03:10:59.040Z,15.52
2023-01-18T03:13:32.334Z,14.25
2023-01-18T03:16:05.724Z,15.07
2023-01-18T03:18:39.376Z,15.23
2023-01-18T03:21:08.418Z,14.98
2023-01-18T03:23:38.386Z,14.52
2023-01-18T03:26:07.791Z,14.70
2023-01-18T03:28:54.011Z,14.30
2023-01-18T03:31:45.730Z,13.68
2023-01-18T03:34:18.858Z,13.75
2023-01-18T03:36:47.940Z,12.60
2023-01-18T03:39:20.281Z,13.77
2023-01-18T03:41:50.167Z,14.68
2023-01-18T03:44:20.461Z,15.68
2023-01-18T03:46:49.389Z,15.95
2023-01-18T03:49:18.092Z,15.57
2023-01-18T03:51:54.417Z,15.85
2023-01-18T03:54:26.613Z,15.83
2023-01-18T03:56:59.016Z,15.40
2023-01-18T03:59:31.039Z,15.30
2023-01-18T04:01:59.986Z,14.77
2023-01-18T04:04:27.688Z,15.30
2023-01-18T04:06:55.415Z,16.25
2023-01-18T04:09:23.100Z,15.73
2023-01-18T04:11:50.701Z,14.95
2023-01-18T04:14:18.434Z,14.90
2023-01-18T04:16:46.013Z,14.43
2023-01-18T04:19:14.983Z,14.60
2023-01-18T04:21:42.504Z,13.95
2023-01-18T04:24:11.227Z,14.55
2023-01-18T04:26:38.896Z,14.68
2023-01-18T04:29:06.621Z,14.82
2023-01-18T04:31:34.579Z,14.35
2023-01-18T04:34:02.154Z,12.27
2023-01-18T04:36:31.553Z,13.40
2023-01-18T04:38:59.316Z,13.47
2023-01-18T04:41:27.083Z,14.55
2023-01-18T04:43:54.804Z,13.82
2023-01-18T04:46:22.634Z,15.20
2023-01-18T04:48:51.725Z,14.38
2023-01-18T04:51:19.852Z,14.35
2023-01-18T04:53:49.007Z,13.93
2023-01-18T04:56:17.015Z,13.32
2023-01-18T04:58:44.868Z,13.93
2023-01-18T05:01:14.167Z,13.77
2023-01-18T05:03:42.096Z,13.85
2023-01-18T05:06:11.884Z,14.55
2023-01-18T05:08:41.003Z,13.13
2023-01-18T05:11:11.805Z,13.57
2023-01-18T05:13:39.987Z,14.90
2023-01-18T05:16:08.195Z,14.77
2023-01-18T05:18:35.773Z,16.13
2023-01-18T05:21:03.495Z,15.50
2023-01-18T05:23:31.099Z,16.38
2023-01-18T05:25:59.479Z,18.58
2023-01-18T05:28:29.035Z,17.85
2023-01-18T05:30:56.633Z,18.27
2023-01-18T05:33:24.331Z,17.85
2023-01-18T05:35:52.580Z,17.65
2023-01-18T05:38:20.980Z,17.95
2023-01-18T05:40:52.294Z,18.10
2023-01-18T05:43:20.311Z,17.88
2023-01-18T05:45:49.706Z,17.05
2023-01-18T05:48:17.911Z,17.17
2023-01-18T05:50:47.221Z,17.40
2023-01-18T05:53:16.391Z,16.77
2023-01-18T05:55:44.799Z,16.15
2023-01-18T05:58:12.599Z,15.68
2023-01-18T06:00:40.137Z,15.43
2023-01-18T06:03:10.815Z,16.25
2023-01-18T06:05:38.703Z,15.05
2023-01-18T06:08:06.809Z,15.70
2023-01-18T06:10:34.628Z,17.43
2023-01-18T06:13:02.330Z,16.65
2023-01-18T06:15:29.939Z,18.90
2023-01-18T06:17:59.341Z,17.83
2023-01-18T06:20:30.622Z,17.47
2023-01-18T06:22:59.266Z,17.80
2023-01-18T06:25:27.459Z,17.10
2023-01-18T06:27:55.018Z,16.52
2023-01-18T06:30:22.960Z,16.45
2023-01-18T06:32:51.448Z,17.37
2023-01-18T06:35:20.326Z,16.33
2023-01-18T06:37:49.189Z,16.85
2023-01-18T06:40:17.613Z,18.45
2023-01-18T06:42:48.971Z,16.83
2023-01-18T06:45:19.504Z,17.63
2023-01-18T06:47:47.056Z,18.00
2023-01-18T06:50:15.345Z,18.23
2023-01-18T06:52:43.740Z,17.85
2023-01-18T06:55:13.490Z,17.13
2023-01-18T06:57:41.096Z,17.85
2023-01-18T07:00:10.728Z,16.23
2023-01-18T07:02:38.539Z,16.95
2023-01-18T07:05:06.921Z,15.90
2023-01-18T07:07:35.260Z,15.27
2023-01-18T07:10:02.760Z,16.23
2023-01-18T07:12:31.666Z,15.30
2023-01-18T07:15:01.608Z,15.60
2023-01-18T07:17:32.687Z,15.57
2023-01-18T07:20:00.184Z,15.15
2023-01-18T07:22:36.169Z,15.95
2023-01-18T07:25:04.054Z,15.45
2023-01-18T07:27:33.212Z,15.00
2023-01-18T07:30:00.774Z,15.68
2023-01-18T07:32:28.482Z,15.67
2023-01-18T07:34:58.569Z,15.93
2023-01-18T07:37:26.972Z,15.43
2023-01-18T07:39:54.529Z,15.90
2023-01-18T07:42:22.101Z,15.93
2023-01-18T07:44:51.148Z,16.45
2023-01-18T07:47:18.984Z,16.23
2023-01-18T07:49:46.868Z,16.88
2023-01-18T07:52:14.529Z,15.98
2023-01-18T07:54:42.258Z,16.13
2023-01-18T07:57:09.835Z,15.90
2023-01-18T07:59:40.041Z,15.85
2023-01-18T08:02:12.843Z,16.48
2023-01-18T08:04:41.910Z,15.35
2023-01-18T08:07:09.526Z,15.13
2023-01-18T08:09:37.072Z,15.40
2023-01-18T08:12:06.823Z,14.85
2023-01-18T08:14:34.904Z,15.13
2023-01-18T08:17:02.606Z,15.87
2023-01-18T08:19:31.774Z,16.83
2023-01-18T08:21:59.672Z,15.18
2023-01-18T08:24:29.509Z,14.55
2023-01-18T08:26:57.377Z,15.43
2023-01-18T08:29:25.283Z,16.83
2023-01-18T08:31:53.577Z,15.48
2023-01-18T08:34:21.927Z,14.82
2023-01-18T08:36:51.055Z,15.50
2023-01-18T08:39:18.876Z,14.80
2023-01-18T08:41:47.478Z,15.30
2023-01-18T08:44:15.026Z,15.77
2023-01-18T08:46:42.652Z,15.30
2023-01-18T08:49:11.853Z,15.73
2023-01-18T08:51:39.455Z,15.02
2023-01-18T08:54:08.515Z,15.48
2023-01-18T08:56:36.280Z,16.50
2023-01-18T08:59:04.221Z,15.32
2023-01-18T09:01:32.044Z,15.97
2023-01-18T09:03:59.638Z,16.25
2023-01-18T09:06:32.076Z,16.20
2023-01-18T09:08:59.892Z,15.32
2023-01-18T09:11:29.160Z,16.02
2023-01-18T09:14:01.767Z,15.68
2023-01-18T09:16:30.979Z,15.95
2023-01-18T09:18:58.761Z,15.17
2023-01-18T09:21:28.022Z,15.70
2023-01-18T09:23:55.792Z,17.23
2023-01-18T09:26:23.427Z,16.35
2023-01-18T09:28:53.458Z,15.73
2023-01-18T09:31:22.994Z,16.23
2023-01-18T09:33:54.022Z,16.80
2023-01-18T09:36:26.340Z,16.63
2023-01-18T09:38:54.297Z,16.85
2023-01-18T09:41:29.110Z,16.50
2023-01-18T09:44:01.879Z,16.58
2023-01-18T09:46:29.527Z,16.33
2023-01-18T09:48:59.306Z,17.25
2023-01-18T09:51:31.025Z,17.15
2023-01-18T09:54:10.114Z,17.35
2023-01-18T09:56:43.463Z,17.60
2023-01-18T09:59:20.037Z,18.52
2023-01-18T10:01:48.464Z,18.00
2023-01-18T10:04:18.584Z,17.52
2023-01-18T10:06:49.500Z,19.20
2023-01-18T10:09:19.600Z,18.67
2023-01-18T10:11:54.254Z,19.90
2023-01-18T10:14:35.782Z,18.83
2023-01-18T10:17:05.291Z,19.42
2023-01-18T10:19:33.700Z,19.73
2023-01-18T10:22:06.616Z,19.67
2023-01-18T10:24:42.344Z,19.67
2023-01-18T10:27:28.465Z,20.00
2023-01-18T10:30:11.249Z,19.53
2023-01-18T10:32:39.723Z,18.70
2023-01-18T10:35:14.964Z,19.67
2023-01-18T10:37:45.396Z,20.53
2023-01-18T10:40:15.614Z,21.55
2023-01-18T10:42:46.446Z,20.08
2023-01-18T10:45:20.299Z,20.95
2023-01-18T10:47:48.983Z,20.70
2023-01-18T10:50:18.557Z,19.70
2023-01-18T10:52:46.386Z,19.88
2023-01-18T10:55:17.533Z,19.40
2023-01-18T10:57:55.158Z,20.17
2023-01-18T11:00:40.432Z,19.90
2023-01-18T11:03:17.843Z,19.88
2023-01-18T11:05:46.794Z,20.85
2023-01-18T11:08:22.063Z,20.42
2023-01-18T11:11:12.448Z,20.80
2023-01-18T11:13:45.357Z,19.73
2023-01-18T11:16:17.862Z,20.45
2023-01-18T11:19:10.705Z,20.40
2023-01-18T11:21:50.645Z,19.55
2023-01-18T11:24:41.551Z,19.50
2023-01-18T11:27:24.992Z,19.08
2023-01-18T11:30:29.159Z,19.02
2023-01-18T11:33:49.286Z,19.25
2023-01-18T11:40:10.043Z,18.77
2023-01-18T11:42:39.152Z,17.50
2023-01-18T11:45:16.307Z,17.95
2023-01-18T11:47:55.304Z,19.08
2023-01-18T11:50:58.251Z,17.65
2023-01-18T11:53:51.006Z,18.67
2023-01-18T11:56:29.141Z,17.77
2023-01-18T11:59:15.326Z,18.07
2023-01-18T12:02:19.813Z,18.17
2023-01-18T12:05:01.357Z,17.55
2023-01-18T12:07:59.474Z,17.02
2023-01-18T12:10:38.275Z,17.58
2023-01-18T12:13:41.743Z,17.30
2023-01-18T12:16:17.221Z,17.58
2023-01-18T12:19:19.692Z,17.45
2023-01-18T12:22:02.767Z,16.42
2023-01-18T12:24:38.511Z,17.25
2023-01-18T12:27:14.213Z,17.40
2023-01-18T12:30:23.630Z,16.08
2023-01-18T12:33:11.241Z,16.15
2023-01-18T12:35:56.760Z,15.25
2023-01-18T12:38:27.919Z,15.18
2023-01-18T12:41:16.322Z,15.70
2023-01-18T12:43:57.490Z,15.18
2023-01-18T12:46:29.450Z,16.10
2023-01-18T12:49:01.286Z,14.27
2023-01-18T12:51:32.689Z,14.85
2023-01-18T12:54:03.621Z,15.27
2023-01-18T12:56:33.403Z,14.93
2023-01-18T12:59:04.768Z,15.10
2023-01-18T13:01:40.043Z,14.20
2023-01-18T13:04:14.257Z,14.25
2023-01-18T13:06:49.195Z,14.15
2023-01-18T13:09:20.119Z,13.57
2023-01-18T13:11:48.300Z,14.52
2023-01-18T13:14:21.327Z,13.43
2023-01-18T13:16:52.313Z,13.10
2023-01-18T13:19:24.711Z,14.05
2023-01-18T13:22:03.005Z,12.90
2023-01-18T13:24:40.778Z,12.90
2023-01-18T13:27:10.114Z,12.98
2023-01-18T13:29:39.576Z,12.13
2023-01-18T13:32:22.907Z,13.05
2023-01-18T13:35:17.972Z,12.93
2023-01-18T13:37:48.726Z,13.05
2023-01-18T13:40:24.502Z,11.85
2023-01-18T13:42:52.243Z,11.55
2023-01-18T13:45:23.778Z,11.33
2023-01-18T13:48:03.816Z,11.48
2023-01-18T13:50:45.073Z,11.82
2023-01-18T13:53:31.568Z,10.95
2023-01-18T13:56:33.350Z,11.27
2023-01-18T13:59:06.759Z,10.95
2023-01-18T14:01:37.292Z,10.70
2023-01-18T14:04:17.766Z,9.57
2023-01-18T14:06:46.476Z,10.15
2023-01-18T14:09:16.003Z,10.13
2023-01-18T14:11:52.185Z,9.18
2023-01-18T14:14:30.001Z,8.93
2023-01-18T14:17:02.213Z,7.65
2023-01-18T14:19:30.673Z,6.95
2023-01-18T14:22:27.059Z,7.28
2023-01-18T14:25:17.412Z,6.80
2023-01-18T14:27:49.076Z,6.75
2023-01-18T14:30:22.719Z,6.40
2023-01-18T14:32:56.962Z,6.18
2023-01-18T14:35:26.114Z,6.27
2023-01-18T14:37:54.374Z,6.10
2023-01-18T14:40:24.448Z,5.68
2023-01-18T14:42:54.359Z,7.28
2023-01-18T14:45:29.149Z,6.47
2023-01-18T14:48:00.608Z,6.40
2023-01-18T14:50:33.300Z,6.30
2023-01-18T14:53:01.643Z,6.75
2023-01-18T14:55:32.348Z,6.53
2023-01-18T14:58:05.763Z,6.82
2023-01-18T15:00:33.520Z,6.55
2023-01-18T15:03:03.062Z,6.28
2023-01-18T15:05:31.504Z,7.20
2023-01-18T15:07:59.498Z,7.15
2023-01-18T15:10:28.106Z,7.38
2023-01-18T15:12:58.537Z,7.13
2023-01-18T15:15:30.285Z,6.93
2023-01-18T15:18:04.418Z,6.80
2023-01-18T15:20:32.361Z,6.77
2023-01-18T15:23:00.580Z,7.18
2023-01-18T15:25:33.122Z,7.50
2023-01-18T15:28:18.412Z,7.75
2023-01-18T15:30:52.063Z,7.38
2023-01-18T15:33:23.564Z,7.63
2023-01-18T15:35:54.733Z,7.93
2023-01-18T15:38:22.353Z,7.10
2023-01-18T15:40:56.815Z,8.55
2023-01-18T15:43:29.203Z,8.27
2023-01-18T15:45:57.713Z,8.15
2023-01-18T15:48:28.143Z,8.07
2023-01-18T15:50:57.130Z,8.93
2023-01-18T15:53:30.033Z,8.95
2023-01-18T15:55:59.679Z,8.63
2023-01-18T15:58:32.288Z,8.50
2023-01-18T16:01:02.005Z,8.50
2023-01-18T16:03:35.471Z,9.23
2023-01-18T16:06:10.418Z,8.35
2023-01-18T16:08:39.875Z,9.30
2023-01-18T16:11:27.207Z,9.15
2023-01-18T16:14:01.454Z,9.48
2023-01-18T16:16:30.148Z,9.15
2023-01-18T16:19:06.781Z,8.65
2023-01-18T16:21:40.578Z,8.95
2023-01-18T16:24:23.569Z,8.70
2023-01-18T16:26:51.286Z,8.90
2023-01-18T16:29:19.207Z,8.93
2023-01-18T16:31:48.206Z,9.02
2023-01-18T16:34:21.460Z,9.43
2023-01-18T16:36:55.577Z,8.93
2023-01-18T16:39:24.448Z,8.82
2023-01-18T16:41:56.403Z,8.82
2023-01-18T16:44:24.638Z,8.98
2023-01-18T16:46:53.993Z,8.80
2023-01-18T16:49:23.069Z,8.57
2023-01-18T16:51:51.398Z,8.82
2023-01-18T16:54:19.069Z,8.98
2023-01-18T16:56:47.897Z,9.68
2023-01-18T16:59:18.509Z,8.60
2023-01-18T17:01:46.642Z,9.50
2023-01-18T17:04:14.496Z,9.50
2023-01-18T17:06:44.669Z,9.77
2023-01-18T17:09:22.006Z,9.23
2023-01-18T17:11:50.159Z,8.93
2023-01-18T17:14:18.318Z,8.85
2023-01-18T17:16:46.624Z,8.80
2023-01-18T17:19:14.665Z,8.65
2023-01-18T17:21:45.342Z,7.82
2023-01-18T17:24:14.529Z,7.85
2023-01-18T17:26:43.016Z,7.75
2023-01-18T17:29:17.382Z,8.27
2023-01-18T17:31:52.394Z,7.53
2023-01-18T17:34:27.769Z,8.33
2023-01-18T17:36:59.148Z,8.25
2023-01-18T17:39:37.433Z,7.57
2023-01-18T17:42:14.349Z,7.87
2023-01-18T17:44:44.256Z,7.18
2023-01-18T17:47:11.993Z,7.25
2023-01-18T17:49:39.687Z,7.63
2023-01-18T17:52:08.846Z,7.10
2023-01-18T17:54:36.466Z,6.93
2023-01-18T17:57:08.647Z,6.72
2023-01-18T17:59:36.151Z,7.32
2023-01-18T18:02:04.737Z,7.65
2023-01-18T18:04:32.489Z,7.53
2023-01-18T18:07:00.468Z,7.47
2023-01-18T18:09:29.558Z,7.13
2023-01-18T18:11:57.286Z,6.82
2023-01-18T18:14:24.855Z,7.25
2023-01-18T18:16:52.632Z,7.75
2023-01-18T18:19:21.340Z,7.60
2023-01-18T18:21:49.074Z,7.10
2023-01-18T18:24:16.788Z,7.75
2023-01-18T18:26:45.724Z,7.40
2023-01-18T18:29:13.617Z,6.78
2023-01-18T18:31:42.223Z,7.30
2023-01-18T18:34:10.231Z,7.43
2023-01-18T18:36:38.231Z,7.07
2023-01-18T18:39:06.649Z,6.53
2023-01-18T18:41:34.264Z,7.33
2023-01-18T18:44:03.285Z,6.90
2023-01-18T18:46:30.914Z,7.50
2023-01-18T18:48:58.621Z,6.63
2023-01-18T18:51:26.795Z,6.97
2023-01-18T18:53:54.361Z,6.50
2023-01-18T18:56:21.928Z,7.25
2023-01-18T18:58:49.466Z,6.50
2023-01-18T19:01:22.701Z,6.03
2023-01-18T19:03:51.128Z,6.13
2023-01-18T19:06:20.324Z,5.68
2023-01-18T19:08:48.359Z,6.75
2023-01-18T19:11:16.617Z,5.93
2023-01-18T19:13:44.437Z,6.53
2023-01-18T19:16:12.362Z,5.85
2023-01-18T19:18:41.579Z,6.25
2023-01-18T19:21:09.277Z,5.70
2023-01-18T19:23:36.796Z,5.80
2023-01-18T19:26:04.396Z,5.72
2023-01-18T19:28:32.026Z,5.63
2023-01-18T19:31:04.393Z,5.75
2023-01-18T19:33:32.050Z,5.75
2023-01-18T19:36:07.929Z,5.82
2023-01-18T19:38:40.807Z,5.93
2023-01-18T19:41:13.120Z,6.07
2023-01-18T19:43:41.817Z,5.73
2023-01-18T19:46:12.688Z,5.75
2023-01-18T19:48:40.313Z,5.90
2023-01-18T19:51:21.120Z,5.50
2023-01-18T19:53:49.586Z,5.30
2023-01-18T19:56:17.165Z,5.20
2023-01-18T19:58:45.096Z,6.03
2023-01-18T20:01:26.665Z,5.40
2023-01-18T20:03:58.076Z,5.70
2023-01-18T20:06:26.958Z,5.15
2023-01-18T20:08:54.538Z,5.38
2023-01-18T20:11:22.059Z,5.38
2023-01-18T20:13:50.844Z,5.95
2023-01-18T20:16:20.471Z,4.70
2023-01-18T20:18:48.631Z,4.78
2023-01-18T20:21:18.323Z,6.07
2023-01-18T20:23:47.614Z,5.00
2023-01-18T20:26:24.563Z,4.77
2023-01-18T20:28:53.465Z,4.87
2023-01-18T20:31:21.214Z,4.88
2023-01-18T20:33:48.804Z,4.60
2023-01-18T20:36:16.653Z,5.07
2023-01-18T20:38:45.035Z,4.60
2023-01-18T20:41:13.965Z,4.82
2023-01-18T20:43:41.615Z,5.43
2023-01-18T20:46:11.294Z,4.90
2023-01-18T20:48:42.864Z,4.97
2023-01-18T20:51:10.548Z,4.80
2023-01-18T20:53:39.128Z,5.55
2023-01-18T20:56:19.977Z,4.72
2023-01-18T20:58:56.055Z,5.03
2023-01-18T21:01:31.626Z,4.45
2023-01-18T21:04:00.100Z,5.22
2023-01-18T21:06:28.146Z,4.95
2023-01-18T21:08:56.922Z,5.30
2023-01-18T21:11:25.465Z,5.53
2023-01-18T21:13:53.884Z,5.10
2023-01-18T21:16:23.694Z,5.25
2023-01-18T21:18:55.892Z,5.38
2023-01-18T21:21:23.892Z,5.53
2023-01-18T21:23:51.652Z,5.45
2023-01-18T21:26:19.606Z,6.07
2023-01-18T21:28:47.402Z,5.55
2023-01-18T21:31:15.706Z,5.73
2023-01-18T21:33:45.339Z,5.20
2023-01-18T21:36:15.389Z,5.72
2023-01-18T21:38:43.292Z,6.60
2023-01-18T21:41:28.416Z,5.88
2023-01-18T21:44:13.595Z,6.60
2023-01-18T21:46:45.648Z,6.07
2023-01-18T21:49:42.912Z,6.70
2023-01-18T21:52:37.509Z,5.57
2023-01-18T21:55:05.990Z,6.22
2023-01-18T21:57:33.894Z,6.85
2023-01-18T22:00:01.874Z,6.10
2023-01-18T22:02:34.566Z,6.07
2023-01-18T22:05:08.495Z,6.40
2023-01-18T22:07:36.423Z,6.35
2023-01-18T22:10:06.611Z,6.28
2023-01-18T22:12:36.525Z,6.10
2023-01-18T22:15:04.704Z,6.15
2023-01-18T22:17:32.627Z,6.97
2023-01-18T22:20:02.218Z,6.53
2023-01-18T22:22:32.062Z,6.40
2023-01-18T22:25:02.273Z,6.53
2023-01-18T22:27:30.391Z,6.80
2023-01-18T22:29:58.168Z,6.90
2023-01-18T22:32:25.914Z,7.10
2023-01-18T22:34:54.008Z,6.95
2023-01-18T22:37:22.859Z,6.60
2023-01-18T22:40:03.664Z,6.47
2023-01-18T22:42:35.113Z,7.15
2023-01-18T22:45:05.974Z,6.72
2023-01-18T22:47:33.689Z,6.28
2023-01-18T22:50:01.908Z,7.53
2023-01-18T22:52:29.854Z,7.07
2023-01-18T22:54:59.202Z,7.70
2023-01-18T22:57:26.865Z,7.18
2023-01-18T22:59:54.611Z,7.40
2023-01-18T23:02:22.325Z,7.50
2023-01-18T23:04:52.819Z,7.20
2023-01-18T23:07:21.155Z,6.75
2023-01-18T23:09:51.243Z,7.90
2023-01-18T23:12:20.621Z,7.80
2023-01-18T23:15:06.048Z,8.15
2023-01-18T23:17:40.101Z,7.63
2023-01-18T23:20:14.718Z,8.02
2023-01-18T23:22:42.730Z,7.73
2023-01-18T23:25:12.578Z,7.70
2023-01-18T23:27:41.796Z,8.13
2023-01-18T23:30:13.977Z,7.80
2023-01-18T23:32:43.553Z,7.15
2023-01-18T23:35:13.480Z,7.88
2023-01-18T23:37:44.131Z,7.30
2023-01-18T23:40:30.474Z,8.20
2023-01-18T23:43:16.868Z,8.32
2023-01-18T23:46:03.286Z,9.17
2023-01-18T23:48:48.458Z,8.75
2023-01-18T23:51:33.750Z,8.40
2023-01-18T23:54:19.499Z,8.57
2023-01-18T23:56:48.201Z,8.70
2023-01-18T23:59:17.597Z,9.00
